createdAt,value
2023-05-12T00:01:14.434Z,100.00
2023-05-12T00:03:41.905Z,100.00
2023-05-12T00:06:08.784Z,100.00
2023-05-12T00:08:35.503Z,100.00
2023-05-12T00:11:02.442Z,100.00
2023-05-12T00:13:29.207Z,100.00
2023-05-12T00:15:59.366Z,100.00
2023-05-12T00:18:26.565Z,100.00
2023-05-12T00:20:54.831Z,100.00
2023-05-12T00:23:22.819Z,100.00
2023-05-12T00:25:50.150Z,100.00
2023-05-12T00:28:18.058Z,100.00
2023-05-12T00:30:44.904Z,100.00
2023-05-12T00:33:11.520Z,100.00
2023-05-12T00:35:38.116Z,100.00
2023-05-12T00:38:04.800Z,100.00
2023-05-12T00:40:34.548Z,100.00
2023-05-12T00:43:01.602Z,100.00
2023-05-12T00:45:29.929Z,100.00
2023-05-12T00:47:57.407Z,100.00
2023-05-12T00:52:58.664Z,100.00
2023-05-12T00:55:25.823Z,100.00
2023-05-12T00:57:52.491Z,100.00
2023-05-12T01:00:25.867Z,100.00
2023-05-12T01:02:52.865Z,100.00
2023-05-12T01:05:19.660Z,100.00
2023-05-12T01:07:46.952Z,100.00
2023-05-12T01:10:21.266Z,100.00
2023-05-12T01:12:48.504Z,100.00
2023-05-12T01:15:16.491Z,100.00
2023-05-12T01:17:51.021Z,100.00
2023-05-12T01:20:19.026Z,100.00
2023-05-12T01:22:48.183Z,100.00
2023-05-12T01:25:15.932Z,100.00
2023-05-12T01:27:43.230Z,100.00
2023-05-12T01:30:12.170Z,100.00
2023-05-12T01:32:40.622Z,100.00
2023-05-12T01:35:07.534Z,100.00
2023-05-12T01:37:34.121Z,100.00
2023-05-12T01:40:00.931Z,100.00
2023-05-12T01:42:27.989Z,100.00
2023-05-12T01:44:54.677Z,100.00
2023-05-12T01:47:21.772Z,100.00
2023-05-12T01:49:48.702Z,100.00
2023-05-12T01:52:15.422Z,100.00
2023-05-12T01:54:41.953Z,100.00
2023-05-12T01:57:08.578Z,100.00
2023-05-12T01:59:35.118Z,100.00
2023-05-12T02:02:01.712Z,100.00
2023-05-12T02:04:28.394Z,100.00
2023-05-12T02:06:54.966Z,100.00
2023-05-12T02:09:23.041Z,100.00
2023-05-12T02:11:49.696Z,100.00
2023-05-12T02:14:16.330Z,100.00
2023-05-12T02:16:43.145Z,100.00
2023-05-12T02:19:09.795Z,100.00
2023-05-12T02:21:36.558Z,100.00
2023-05-12T02:24:03.205Z,100.00
2023-05-12T02:26:29.818Z,100.00
2023-05-12T02:28:56.428Z,100.00
2023-05-12T02:31:22.980Z,100.00
2023-05-12T02:33:50.982Z,100.00
2023-05-12T02:36:17.541Z,100.00
2023-05-12T02:38:44.143Z,100.00
2023-05-12T02:41:10.773Z,100.00
2023-05-12T02:43:37.351Z,100.00
2023-05-12T02:46:03.960Z,100.00
2023-05-12T02:48:30.559Z,100.00
2023-05-12T02:50:57.533Z,100.00
2023-05-12T02:53:24.267Z,100.00
2023-05-12T02:55:51.261Z,100.00
2023-05-12T02:58:17.867Z,100.00
2023-05-12T03:00:44.602Z,100.00
2023-05-12T03:03:11.363Z,100.00
2023-05-12T03:05:37.986Z,100.00
2023-05-12T03:08:04.759Z,100.00
2023-05-12T03:10:31.603Z,100.00
2023-05-12T03:12:58.167Z,100.00
2023-05-12T03:15:24.766Z,100.00
2023-05-12T03:17:51.486Z,100.00
2023-05-12T03:20:18.447Z,100.00
2023-05-12T03:22:45.249Z,100.00
2023-05-12T03:25:12.572Z,100.00
2023-05-12T03:27:39.155Z,100.00
2023-05-12T03:30:06.278Z,100.00
2023-05-12T03:32:32.961Z,100.00
2023-05-12T03:34:59.878Z,100.00
2023-05-12T03:37:26.501Z,100.00
2023-05-12T03:39:56.276Z,100.00
2023-05-12T03:42:24.227Z,100.00
2023-05-12T03:44:51.972Z,100.00
2023-05-12T03:47:18.592Z,100.00
2023-05-12T03:49:45.480Z,100.00
2023-05-12T03:52:12.778Z,100.00
2023-05-12T03:54:39.374Z,100.00
2023-05-12T03:57:06.661Z,100.00
2023-05-12T03:59:33.330Z,100.00
2023-05-12T04:01:59.961Z,100.00
2023-05-12T04:04:26.636Z,100.00
2023-05-12T04:06:53.291Z,100.00
2023-05-12T04:09:21.460Z,100.00
2023-05-12T04:11:48.007Z,100.00
2023-05-12T04:14:14.576Z,100.00
2023-05-12T04:16:41.462Z,100.00
2023-05-12T04:19:08.261Z,100.00
2023-05-12T04:21:35.112Z,100.00
2023-05-12T04:24:01.645Z,100.00
2023-05-12T04:26:28.295Z,100.00
2023-05-12T04:28:54.837Z,100.00
2023-05-12T04:31:21.450Z,100.00
2023-05-12T04:33:48.564Z,100.00
2023-05-12T04:36:15.312Z,100.00
2023-05-12T04:38:42.107Z,100.00
2023-05-12T04:41:09.393Z,100.00
2023-05-12T04:46:05.893Z,100.00
2023-05-12T04:48:32.489Z,100.00
2023-05-12T04:51:00.446Z,100.00
2023-05-12T04:53:34.777Z,100.00
2023-05-12T04:56:02.095Z,100.00
2023-05-12T04:58:28.777Z,100.00
2023-05-12T05:00:55.409Z,100.00
2023-05-12T05:03:22.709Z,100.00
2023-05-12T05:05:49.418Z,100.00
2023-05-12T05:08:16.007Z,100.00
2023-05-12T05:10:42.627Z,100.00
2023-05-12T05:13:09.206Z,100.00
2023-05-12T05:15:35.817Z,100.00
2023-05-12T05:18:02.522Z,100.00
2023-05-12T05:20:29.503Z,100.00
2023-05-12T05:22:56.463Z,100.00
2023-05-12T05:25:23.112Z,100.00
2023-05-12T05:27:49.905Z,100.00
2023-05-12T05:30:16.873Z,100.00
2023-05-12T05:32:43.579Z,100.00
2023-05-12T05:35:10.286Z,100.00
2023-05-12T05:37:37.249Z,100.00
2023-05-12T05:40:04.969Z,100.00
2023-05-12T05:42:31.591Z,100.00
2023-05-12T05:44:58.196Z,100.00
2023-05-12T05:47:24.861Z,100.00
2023-05-12T05:49:51.590Z,100.00
2023-05-12T05:52:18.233Z,100.00
2023-05-12T05:54:44.877Z,100.00
2023-05-12T05:57:11.743Z,100.00
2023-05-12T05:59:38.598Z,100.00
2023-05-12T06:02:05.601Z,100.00
2023-05-12T06:04:32.247Z,100.00
2023-05-12T06:06:58.847Z,100.00
2023-05-12T06:09:25.425Z,100.00
2023-05-12T06:11:52.119Z,100.00
2023-05-12T06:14:18.682Z,100.00
2023-05-12T06:16:45.477Z,100.00
2023-05-12T06:19:12.816Z,100.00
2023-05-12T06:21:39.558Z,100.00
2023-05-12T06:24:06.670Z,100.00
2023-05-12T06:26:33.245Z,100.00
2023-05-12T06:28:59.861Z,100.00
2023-05-12T06:31:26.602Z,100.00
2023-05-12T06:33:53.298Z,100.00
2023-05-12T06:36:19.867Z,100.00
2023-05-12T06:38:46.473Z,100.00
2023-05-12T06:41:13.066Z,100.00
2023-05-12T06:43:39.933Z,100.00
2023-05-12T06:46:07.117Z,100.00
2023-05-12T06:48:33.757Z,100.00
2023-05-12T06:51:00.446Z,100.00
2023-05-12T06:53:27.502Z,100.00
2023-05-12T06:55:55.232Z,99.13
2023-05-12T06:58:22.330Z,96.43
2023-05-12T07:00:48.967Z,98.36
2023-05-12T07:03:15.715Z,94.60
2023-05-12T07:05:42.510Z,91.67
2023-05-12T07:08:09.118Z,94.45
2023-05-12T07:10:36.100Z,96.98
2023-05-12T07:13:02.762Z,94.90
2023-05-12T07:15:31.913Z,90.87
2023-05-12T07:17:59.416Z,96.42
2023-05-12T07:20:26.285Z,93.25
2023-05-12T07:22:54.902Z,90.76
2023-05-12T07:25:22.301Z,95.76
2023-05-12T07:27:50.127Z,94.62
2023-05-12T07:30:17.300Z,98.30
2023-05-12T07:32:43.907Z,93.60
2023-05-12T07:35:10.802Z,87.00
2023-05-12T07:37:38.260Z,86.95
2023-05-12T07:40:05.288Z,86.60
2023-05-12T07:42:31.881Z,84.66
2023-05-12T07:44:58.667Z,88.33
2023-05-12T07:47:25.742Z,88.07
2023-05-12T07:49:52.439Z,83.95
2023-05-12T07:52:19.160Z,86.92
2023-05-12T07:54:45.920Z,88.73
2023-05-12T07:57:12.565Z,87.27
2023-05-12T07:59:39.200Z,89.84
2023-05-12T08:02:05.892Z,89.81
2023-05-12T08:04:32.597Z,89.75
2023-05-12T08:06:59.212Z,87.79
2023-05-12T08:09:25.925Z,85.92
2023-05-12T08:11:52.567Z,87.80
2023-05-12T08:14:19.224Z,89.75
2023-05-12T08:16:46.678Z,90.26
2023-05-12T08:19:14.201Z,85.33
2023-05-12T08:21:41.072Z,77.43
2023-05-12T08:24:07.758Z,83.46
2023-05-12T08:26:34.352Z,80.04
2023-05-12T08:29:01.716Z,77.17
2023-05-12T08:31:28.706Z,76.02
2023-05-12T08:34:08.985Z,70.94
2023-05-12T08:36:36.913Z,79.62
2023-05-12T08:39:04.453Z,78.03
2023-05-12T08:41:44.840Z,75.10
2023-05-12T08:44:12.425Z,76.17
2023-05-12T08:46:39.264Z,80.89
2023-05-12T08:49:09.819Z,80.42
2023-05-12T08:51:38.255Z,80.43
2023-05-12T08:54:06.854Z,71.83
2023-05-12T08:59:03.447Z,78.47
2023-05-12T09:01:30.622Z,72.64
2023-05-12T09:03:57.563Z,72.70
2023-05-12T09:06:24.278Z,68.52
2023-05-12T09:08:51.509Z,66.03
2023-05-12T09:11:20.368Z,68.27
2023-05-12T09:14:00.433Z,70.86
2023-05-12T09:16:29.805Z,71.72
2023-05-12T09:18:58.236Z,67.72
2023-05-12T09:21:26.634Z,59.55
2023-05-12T09:23:54.055Z,65.10
2023-05-12T09:26:22.843Z,58.71
2023-05-12T09:28:51.048Z,57.79
2023-05-12T09:31:25.181Z,55.50
2023-05-12T09:33:52.337Z,57.60
2023-05-12T09:36:20.456Z,54.17
2023-05-12T09:38:58.612Z,56.10
2023-05-12T09:41:25.776Z,55.33
2023-05-12T09:43:55.592Z,59.84
2023-05-12T09:46:22.627Z,59.41
2023-05-12T09:48:49.273Z,59.61
2023-05-12T09:51:19.217Z,59.93
2023-05-12T09:53:47.169Z,51.54
2023-05-12T09:56:14.989Z,53.04
2023-05-12T09:58:46.509Z,58.11
2023-05-12T10:01:22.661Z,51.75
2023-05-12T10:03:52.665Z,50.11
2023-05-12T10:06:25.278Z,54.18
2023-05-12T10:09:05.717Z,52.35
2023-05-12T10:11:32.613Z,53.35
2023-05-12T10:14:00.531Z,53.91
2023-05-12T10:16:30.620Z,54.89
2023-05-12T10:18:58.712Z,53.04
2023-05-12T10:21:26.346Z,50.93
2023-05-12T10:23:54.629Z,48.06
2023-05-12T10:26:22.024Z,44.06
2023-05-12T10:28:49.538Z,44.52
2023-05-12T10:31:16.973Z,46.59
2023-05-12T10:33:43.919Z,40.13
2023-05-12T10:36:20.677Z,38.52
2023-05-12T10:38:49.954Z,36.67
2023-05-12T10:41:17.309Z,33.59
2023-05-12T10:43:48.463Z,33.58
2023-05-12T10:46:15.279Z,35.33
2023-05-12T10:48:56.765Z,34.70
2023-05-12T10:51:26.725Z,33.68
2023-05-12T10:53:57.191Z,33.23
2023-05-12T10:56:26.454Z,33.19
2023-05-12T10:59:19.081Z,30.43
2023-05-12T11:02:06.751Z,25.84
2023-05-12T11:04:41.965Z,24.66
2023-05-12T11:07:12.206Z,25.46
2023-05-12T11:09:52.187Z,24.13
2023-05-12T11:12:26.542Z,26.08
2023-05-12T11:14:53.457Z,25.89
2023-05-12T11:17:20.221Z,25.77
2023-05-12T11:19:48.897Z,26.81
2023-05-12T11:22:20.548Z,27.13
2023-05-12T11:24:48.278Z,27.94
2023-05-12T11:27:22.680Z,28.76
2023-05-12T11:29:57.783Z,29.58
2023-05-12T11:32:24.463Z,30.46
2023-05-12T11:34:51.186Z,27.99
2023-05-12T11:37:21.379Z,29.27
2023-05-12T11:39:48.570Z,29.29
2023-05-12T11:42:17.747Z,28.85
2023-05-12T11:44:48.415Z,28.55
2023-05-12T11:47:16.372Z,28.80
2023-05-12T11:49:50.205Z,28.42
2023-05-12T11:52:19.605Z,27.67
2023-05-12T11:54:51.100Z,29.76
2023-05-12T11:57:36.443Z,30.37
2023-05-12T12:00:08.163Z,30.61
2023-05-12T12:02:36.934Z,27.86
2023-05-12T12:05:03.795Z,23.13
2023-05-12T12:07:32.085Z,21.51
2023-05-12T12:09:59.868Z,21.70
2023-05-12T12:12:26.570Z,21.37
2023-05-12T12:14:53.220Z,23.90
2023-05-12T12:17:19.958Z,24.21
2023-05-12T12:19:47.940Z,27.29
2023-05-12T12:22:14.685Z,26.47
2023-05-12T12:24:41.381Z,25.74
2023-05-12T12:27:07.979Z,24.57
2023-05-12T12:29:34.856Z,26.62
2023-05-12T12:32:01.464Z,27.24
2023-05-12T12:34:28.007Z,28.30
2023-05-12T12:36:54.640Z,28.92
2023-05-12T12:39:21.940Z,28.84
2023-05-12T12:41:48.605Z,29.93
2023-05-12T12:44:15.202Z,30.79
2023-05-12T12:46:42.336Z,28.57
2023-05-12T12:49:09.066Z,24.59
2023-05-12T12:51:45.687Z,19.84
2023-05-12T12:54:13.281Z,20.07
2023-05-12T12:56:39.862Z,20.50
2023-05-12T12:59:06.573Z,20.69
2023-05-12T13:01:34.053Z,18.43
2023-05-12T13:04:01.302Z,16.60
2023-05-12T13:06:29.417Z,16.76
2023-05-12T13:08:56.662Z,15.43
2023-05-12T13:11:23.351Z,14.61
2023-05-12T13:13:49.922Z,14.23
2023-05-12T13:16:16.698Z,12.78
2023-05-12T13:18:43.538Z,12.54
2023-05-12T13:21:10.282Z,12.10
2023-05-12T13:23:37.265Z,11.80
2023-05-12T13:26:04.032Z,11.72
2023-05-12T13:28:30.650Z,12.24
2023-05-12T13:30:57.388Z,12.28
2023-05-12T13:33:24.230Z,12.32
2023-05-12T13:35:50.825Z,12.19
2023-05-12T13:38:17.865Z,11.25
2023-05-12T13:40:44.522Z,12.06
2023-05-12T13:43:11.118Z,12.76
2023-05-12T13:45:37.789Z,14.26
2023-05-12T13:48:04.775Z,14.65
2023-05-12T13:50:33.586Z,15.06
2023-05-12T13:53:00.481Z,16.29
2023-05-12T13:55:27.526Z,16.09
2023-05-12T13:57:54.421Z,15.19
2023-05-12T14:00:21.214Z,13.99
2023-05-12T14:02:47.918Z,13.46
2023-05-12T14:05:15.004Z,13.04
2023-05-12T14:07:42.763Z,11.82
2023-05-12T14:10:10.314Z,11.79
2023-05-12T14:12:37.188Z,11.89
2023-05-12T14:15:29.629Z,12.04
2023-05-12T14:17:50.919Z,12.19
2023-05-12T14:20:17.584Z,11.45
2023-05-12T14:22:44.422Z,11.39
2023-05-12T14:25:11.012Z,11.30
2023-05-12T14:27:37.781Z,10.82
2023-05-12T14:30:06.111Z,10.56
2023-05-12T14:32:34.524Z,11.24
2023-05-12T14:35:01.155Z,11.77
2023-05-12T14:37:27.709Z,11.39
2023-05-12T14:39:56.800Z,12.21
2023-05-12T14:42:24.016Z,11.70
2023-05-12T14:44:50.566Z,12.50
2023-05-12T14:47:17.390Z,12.01
2023-05-12T14:49:45.629Z,12.21
2023-05-12T14:52:12.484Z,11.94
2023-05-12T14:54:39.052Z,12.21
2023-05-12T14:57:06.487Z,12.62
2023-05-12T14:59:33.194Z,13.20
2023-05-12T15:01:59.888Z,13.27
2023-05-12T15:04:27.748Z,13.50
2023-05-12T15:06:54.435Z,13.39
2023-05-12T15:09:21.040Z,13.95
2023-05-12T15:11:48.243Z,13.47
2023-05-12T15:14:14.913Z,13.00
2023-05-12T15:16:41.932Z,14.49
2023-05-12T15:19:08.934Z,13.73
2023-05-12T15:21:36.743Z,13.50
2023-05-12T15:24:07.188Z,12.25
2023-05-12T15:26:35.190Z,13.34
2023-05-12T15:29:02.904Z,14.42
2023-05-12T15:31:30.308Z,13.29
2023-05-12T15:33:57.818Z,13.61
2023-05-12T15:36:24.409Z,14.03
2023-05-12T15:38:51.011Z,13.79
2023-05-12T15:41:17.596Z,14.22
2023-05-12T15:43:44.284Z,14.47
2023-05-12T15:46:11.792Z,14.80
2023-05-12T15:48:39.628Z,14.45
2023-05-12T15:51:06.654Z,14.05
2023-05-12T15:53:33.666Z,14.44
2023-05-12T15:56:04.465Z,14.58
2023-05-12T15:58:31.662Z,15.53
2023-05-12T16:00:58.408Z,15.61
2023-05-12T16:03:25.258Z,15.27
2023-05-12T16:05:52.424Z,15.26
2023-05-12T16:08:19.142Z,15.97
2023-05-12T16:10:46.016Z,15.17
2023-05-12T16:13:13.949Z,15.30
2023-05-12T16:15:40.685Z,15.72
2023-05-12T16:18:10.888Z,16.26
2023-05-12T16:20:38.194Z,16.61
2023-05-12T16:23:04.949Z,18.09
2023-05-12T16:25:31.554Z,19.59
2023-05-12T16:27:58.254Z,20.80
2023-05-12T16:30:25.188Z,21.39
2023-05-12T16:32:52.350Z,23.22
2023-05-12T16:35:19.716Z,24.78
2023-05-12T16:37:46.543Z,24.72
2023-05-12T16:40:13.885Z,25.93
2023-05-12T16:42:40.831Z,27.50
2023-05-12T16:45:08.036Z,28.10
2023-05-12T16:47:34.819Z,29.60
2023-05-12T16:50:01.699Z,30.05
2023-05-12T16:52:28.469Z,31.03
2023-05-12T16:54:58.013Z,31.47
2023-05-12T16:57:24.597Z,32.32
2023-05-12T16:59:51.365Z,31.51
2023-05-12T17:02:18.083Z,32.50
2023-05-12T17:04:44.986Z,33.32
2023-05-12T17:07:11.807Z,32.72
2023-05-12T17:09:38.386Z,33.66
2023-05-12T17:12:06.883Z,35.04
2023-05-12T17:14:35.193Z,34.70
2023-05-12T17:17:02.448Z,35.89
2023-05-12T17:19:29.389Z,36.04
2023-05-12T17:21:56.270Z,36.49
2023-05-12T17:24:22.992Z,37.96
2023-05-12T17:26:49.881Z,38.21
2023-05-12T17:29:17.160Z,38.77
2023-05-12T17:31:43.918Z,40.42
2023-05-12T17:34:10.868Z,39.97
2023-05-12T17:36:37.565Z,40.62
2023-05-12T17:39:04.452Z,42.81
2023-05-12T17:41:31.113Z,42.46
2023-05-12T17:43:57.626Z,43.44
2023-05-12T17:46:24.323Z,42.59
2023-05-12T17:48:50.905Z,42.69
2023-05-12T17:51:17.800Z,42.06
2023-05-12T17:53:44.456Z,41.31
2023-05-12T17:56:11.638Z,42.19
2023-05-12T17:58:38.319Z,40.59
2023-05-12T18:01:05.006Z,43.39
2023-05-12T18:03:31.865Z,44.45
2023-05-12T18:05:58.489Z,46.41
2023-05-12T18:08:25.180Z,46.93
2023-05-12T18:10:51.963Z,47.93
2023-05-12T18:13:18.664Z,47.55
2023-05-12T18:15:45.282Z,47.80
2023-05-12T18:18:12.199Z,50.21
2023-05-12T18:20:38.931Z,50.64
2023-05-12T18:23:05.654Z,51.11
2023-05-12T18:25:32.322Z,53.56
2023-05-12T18:27:59.035Z,52.07
2023-05-12T18:30:25.858Z,52.33
2023-05-12T18:32:52.552Z,54.40
2023-05-12T18:35:19.918Z,56.84
2023-05-12T18:37:46.689Z,57.95
2023-05-12T18:40:13.232Z,60.32
2023-05-12T18:42:40.037Z,64.48
2023-05-12T18:45:07.446Z,65.84
2023-05-12T18:47:34.601Z,68.46
2023-05-12T18:50:01.371Z,69.77
2023-05-12T18:52:28.036Z,70.56
2023-05-12T18:54:54.665Z,72.96
2023-05-12T18:57:21.345Z,75.17
2023-05-12T18:59:50.098Z,77.83
2023-05-12T19:02:17.655Z,79.63
2023-05-12T19:04:45.443Z,80.43
2023-05-12T19:07:15.499Z,83.15
2023-05-12T19:09:43.210Z,84.30
2023-05-12T19:12:12.180Z,86.35
2023-05-12T19:14:40.246Z,86.92
2023-05-12T19:17:07.798Z,88.49
2023-05-12T19:19:34.929Z,89.54
2023-05-12T19:22:02.137Z,91.50
2023-05-12T19:24:30.043Z,93.13
2023-05-12T19:26:57.584Z,94.20
2023-05-12T19:29:24.307Z,95.20
2023-05-12T19:31:53.119Z,95.97
2023-05-12T19:34:20.167Z,96.43
2023-05-12T19:36:46.856Z,100.00
2023-05-12T19:39:13.518Z,100.00
2023-05-12T19:41:41.163Z,100.00
2023-05-12T19:44:07.811Z,100.00
2023-05-12T19:46:34.600Z,100.00
2023-05-12T19:49:01.327Z,100.00
2023-05-12T19:51:28.433Z,100.00
2023-05-12T19:53:55.169Z,100.00
2023-05-12T19:56:21.922Z,100.00
2023-05-12T19:58:48.579Z,100.00
2023-05-12T20:01:15.311Z,100.00
2023-05-12T20:03:41.916Z,100.00
2023-05-12T20:06:08.584Z,100.00
2023-05-12T20:08:35.212Z,100.00
2023-05-12T20:11:01.798Z,100.00
2023-05-12T20:13:28.349Z,100.00
2023-05-12T20:15:55.056Z,100.00
2023-05-12T20:18:23.377Z,100.00
2023-05-12T20:20:50.304Z,100.00
2023-05-12T20:23:16.919Z,100.00
2023-05-12T20:25:43.662Z,100.00
2023-05-12T20:28:11.799Z,100.00
2023-05-12T20:30:38.669Z,100.00
2023-05-12T20:33:05.446Z,100.00
2023-05-12T20:35:32.515Z,100.00
2023-05-12T20:37:59.472Z,100.00
2023-05-12T20:40:26.188Z,100.00
2023-05-12T20:42:53.216Z,100.00
2023-05-12T20:45:20.232Z,100.00
2023-05-12T20:47:47.223Z,100.00
2023-05-12T20:50:14.044Z,100.00
2023-05-12T20:52:41.748Z,100.00
2023-05-12T20:55:09.211Z,100.00
2023-05-12T20:57:36.147Z,100.00
2023-05-12T21:00:02.951Z,100.00
2023-05-12T21:02:29.774Z,100.00
2023-05-12T21:05:05.817Z,100.00
2023-05-12T21:07:32.728Z,100.00
2023-05-12T21:10:03.691Z,100.00
2023-05-12T21:12:30.506Z,100.00
2023-05-12T21:14:57.360Z,100.00
2023-05-12T21:17:24.001Z,100.00
2023-05-12T21:19:50.733Z,100.00
2023-05-12T21:22:17.827Z,100.00
2023-05-12T21:24:44.427Z,100.00
2023-05-12T21:27:11.688Z,100.00
2023-05-12T21:29:38.383Z,100.00
2023-05-12T21:32:05.309Z,100.00
2023-05-12T21:34:33.880Z,100.00
2023-05-12T21:37:00.499Z,100.00
2023-05-12T21:39:27.988Z,100.00
2023-05-12T21:41:54.800Z,100.00
2023-05-12T21:44:21.353Z,100.00
2023-05-12T21:46:48.139Z,100.00
2023-05-12T21:49:14.900Z,100.00
2023-05-12T21:51:42.053Z,100.00
2023-05-12T21:54:09.038Z,100.00
2023-05-12T21:56:35.804Z,100.00
2023-05-12T21:59:02.371Z,100.00
2023-05-12T22:01:29.983Z,100.00
2023-05-12T22:03:59.855Z,100.00
2023-05-12T22:06:27.034Z,100.00
2023-05-12T22:08:54.302Z,100.00
2023-05-12T22:11:21.741Z,100.00
2023-05-12T22:13:48.549Z,100.00
2023-05-12T22:16:15.512Z,100.00
2023-05-12T22:18:43.791Z,100.00
2023-05-12T22:21:10.925Z,100.00
2023-05-12T22:23:38.006Z,100.00
2023-05-12T22:26:04.685Z,100.00
2023-05-12T22:28:31.268Z,100.00
2023-05-12T22:30:57.920Z,100.00
2023-05-12T22:33:24.667Z,100.00
2023-05-12T22:35:51.649Z,100.00
2023-05-12T22:38:18.218Z,100.00
2023-05-12T22:40:44.826Z,100.00
2023-05-12T22:43:12.817Z,100.00
2023-05-12T22:45:39.513Z,100.00
2023-05-12T22:48:06.320Z,100.00
2023-05-12T22:50:32.956Z,100.00
2023-05-12T22:52:59.613Z,100.00
2023-05-12T22:55:30.439Z,100.00
2023-05-12T22:57:58.027Z,100.00
2023-05-12T23:00:24.651Z,100.00
2023-05-12T23:02:51.542Z,100.00
2023-05-12T23:05:18.169Z,100.00
2023-05-12T23:07:45.375Z,100.00
2023-05-12T23:10:12.113Z,100.00
2023-05-12T23:12:39.368Z,100.00
2023-05-12T23:15:07.850Z,100.00
2023-05-12T23:17:34.475Z,100.00
2023-05-12T23:20:01.079Z,100.00
2023-05-12T23:22:28.094Z,100.00
2023-05-12T23:24:55.170Z,100.00
2023-05-12T23:27:21.718Z,100.00
2023-05-12T23:29:48.291Z,100.00
2023-05-12T23:32:14.942Z,100.00
2023-05-12T23:34:41.695Z,100.00
2023-05-12T23:37:08.525Z,100.00
2023-05-12T23:39:35.312Z,100.00
2023-05-12T23:42:02.056Z,100.00
2023-05-12T23:44:28.610Z,100.00
2023-05-12T23:46:55.352Z,100.00
2023-05-12T23:49:22.022Z,100.00
2023-05-12T23:51:48.568Z,100.00
2023-05-12T23:54:15.221Z,100.00
2023-05-12T23:56:41.828Z,100.00
2023-05-12T23:59:09.063Z,100.00
